Time;durP1;ratioP1;P1;durP2;ratioP2;P2;SDS_P1;SDS_P2;PMS_P1;PMS_P2;Temp;Humidity;BMP_temperature;BMP_pressure;BME280_temperature;BME280_humidity;BME280_pressure;Samples;Min_cycle;Max_cycle;Signal;HPM_P1;HPM_P2
2023/10/09 00:03:07;;;;;;;;;;;16.30;99.90;;;;;;5098845;28;20481;-74
2023/10/09 00:08:09;;;;;;;1.50;0.80;;;16.30;1.00;;;;;;5104723;28;20508;-74
2023/10/09 00:10:48;;;;;;;1.65;0.90;;;16.30;1.00;;;;;;5101567;28;20065;-74
2023/10/09 00:13:16;;;;;;;1.55;0.93;;;16.40;1.00;;;;;;5087678;28;20130;-74
2023/10/09 00:15:43;;;;;;;1.42;0.80;;;16.40;1.00;;;;;;5053064;28;20133;-74
2023/10/09 00:18:12;;;;;;;2.30;1.05;;;16.40;1.00;;;;;;5105207;28;20419;-74
2023/10/09 00:20:42;;;;;;;1.10;0.70;;;16.40;1.00;;;;;;5086318;28;20055;-74
2023/10/09 00:23:15;;;;;;;1.05;0.63;;;16.50;1.00;;;;;;5104043;27;20051;-73
2023/10/09 00:28:38;;;;;;;0.93;0.60;;;16.60;1.00;;;;;;5089750;28;20039;-74
2023/10/09 00:31:07;;;;;;;1.00;0.80;;;16.60;1.00;;;;;;5103480;28;20039;-74
2023/10/09 00:33:34;;;;;;;1.05;0.55;;;16.60;1.00;;;;;;5086799;28;20048;-74
2023/10/09 00:36:10;;;;;;;1.50;0.80;;;16.60;1.00;;;;;;5103085;28;20222;-74
2023/10/09 00:38:51;;;;;;;0.90;0.70;;;16.60;1.00;;;;;;5086329;28;20123;-74
2023/10/09 00:41:22;;;;;;;1.08;0.70;;;16.60;1.00;;;;;;5088016;28;20048;-74
2023/10/09 00:43:52;;;;;;;0.77;0.70;;;16.60;1.00;;;;;;5104103;28;20079;-73
2023/10/09 00:48:56;;;;;;;1.10;0.95;;;16.60;1.00;;;;;;5085863;28;20131;-74
2023/10/09 00:51:24;;;;;;;1.55;0.90;;;16.60;1.00;;;;;;5103201;28;20048;-74
2023/10/09 00:54:06;;;;;;;1.08;0.73;;;16.60;1.00;;;;;;5097865;28;20040;-74
2023/10/09 00:56:43;;;;;;;0.95;0.85;;;16.60;1.00;;;;;;5087518;28;20043;-73
2023/10/09 00:59:20;;;;;;;1.27;0.73;;;16.60;1.00;;;;;;5099641;28;20047;-74
2023/10/09 01:01:56;;;;;;;1.10;0.70;;;16.60;1.00;;;;;;5102924;28;20134;-73
2023/10/09 01:04:25;;;;;;;0.98;0.75;;;16.50;1.00;;;;;;5103961;28;20132;-74
2023/10/09 01:07:10;;;;;;;1.05;0.68;;;16.50;1.00;;;;;;5102667;28;20051;-74
2023/10/09 01:09:38;;;;;;;1.25;0.88;;;16.50;1.00;;;;;;5102152;28;20055;-74
2023/10/09 01:12:05;;;;;;;2.38;0.95;;;16.50;1.00;;;;;;5103372;28;20050;-73
2023/10/09 01:14:38;;;;;;;1.50;0.90;;;16.40;1.00;;;;;;5101763;28;20066;-74
2023/10/09 01:17:07;;;;;;;1.42;0.82;;;16.40;1.00;;;;;;5086677;28;20044;-74
2023/10/09 01:19:35;;;;;;;1.30;0.90;;;16.30;1.00;;;;;;5085896;28;20058;-74
2023/10/09 01:22:12;;;;;;;1.73;1.00;;;16.30;1.00;;;;;;5086208;28;20047;-74
2023/10/09 01:24:39;;;;;;;1.45;0.80;;;16.30;1.00;;;;;;5102554;28;20863;-74
2023/10/09 01:27:14;;;;;;;1.00;0.75;;;16.20;1.00;;;;;;5103332;28;20040;-74
2023/10/09 01:29:43;;;;;;;1.15;0.68;;;16.20;1.00;;;;;;5102399;28;20593;-74
2023/10/09 01:32:19;;;;;;;1.20;0.80;;;16.20;1.00;;;;;;5100742;28;20044;-74
2023/10/09 01:34:49;;;;;;;1.23;0.70;;;16.20;1.00;;;;;;5104085;28;20484;-74
2023/10/09 01:37:30;;;;;;;1.48;0.90;;;16.10;1.00;;;;;;5071939;28;20112;-74
2023/10/09 01:40:24;;;;;;;1.50;0.90;;;16.10;1.00;;;;;;5103076;28;20388;-73
2023/10/09 01:42:45;;;;;;;0.80;0.60;;;16.10;1.00;;;;;;5103506;28;20101;-73
2023/10/09 01:45:41;;;;;;;1.00;0.80;;;16.10;1.00;;;;;;5097590;28;20546;-74
2023/10/09 01:48:04;;;;;;;1.10;0.73;;;16.10;1.00;;;;;;5101896;28;20043;-74
2023/10/09 01:50:31;;;;;;;1.20;0.77;;;16.00;1.00;;;;;;5103750;28;20044;-74
2023/10/09 01:53:02;;;;;;;1.25;0.65;;;16.00;1.00;;;;;;5068496;28;20138;-74
2023/10/09 01:55:40;;;;;;;0.90;0.75;;;15.90;1.00;;;;;;5102259;28;20498;-74
2023/10/09 02:00:49;;;;;;;1.15;0.85;;;15.80;1.00;;;;;;5086296;28;20081;-73
2023/10/09 02:03:16;;;;;;;1.42;0.90;;;15.80;1.00;;;;;;5069658;28;20052;-74
2023/10/09 02:05:43;;;;;;;1.25;0.90;;;15.70;1.00;;;;;;5103780;28;20059;-74
2023/10/09 02:08:11;;;;;;;1.95;1.23;;;15.70;1.00;;;;;;5099989;28;20058;-74
2023/10/09 02:10:47;;;;;;;1.33;1.10;;;15.60;1.00;;;;;;5085304;28;20040;-74
2023/10/09 02:13:16;;;;;;;1.13;0.80;;;15.60;1.00;;;;;;5087853;28;20047;-74
2023/10/09 02:23:49;;;;;;;1.02;0.73;;;15.60;1.00;;;;;;5103538;28;20101;-74
2023/10/09 02:29:20;;;;;;;0.95;0.73;;;15.60;1.00;;;;;;5104347;28;20043;-74
2023/10/09 02:31:51;;;;;;;0.77;0.60;;;15.50;1.00;;;;;;5089317;28;20399;-74
2023/10/09 02:34:22;;;;;;;1.10;0.68;;;15.50;1.00;;;;;;5104068;28;20086;-73
2023/10/09 02:36:49;;;;;;;0.63;0.50;;;15.50;1.00;;;;;;5101998;28;20130;-73
2023/10/09 02:39:32;;;;;;;0.95;0.63;;;15.50;1.00;;;;;;5103480;28;20047;-74
2023/10/09 02:42:15;;;;;;;1.35;0.80;;;15.50;1.00;;;;;;5104190;28;20445;-74
2023/10/09 02:44:51;;;;;;;0.95;0.68;;;15.50;1.00;;;;;;5102531;28;20082;-74
2023/10/09 02:47:29;;;;;;;1.23;0.70;;;15.40;1.00;;;;;;5084794;28;20036;-74
2023/10/09 02:50:01;;;;;;;0.98;0.70;;;15.40;1.00;;;;;;5087529;28;20595;-73
2023/10/09 02:52:33;;;;;;;0.82;0.70;;;15.30;99.90;;;;;;5104745;28;20450;-74
2023/10/09 02:55:00;;;;;;;1.05;0.60;;;15.30;1.00;;;;;;5102694;28;20075;-74
2023/10/09 02:57:36;;;;;;;1.33;0.90;;;15.30;1.00;;;;;;5101908;28;20039;-74
2023/10/09 03:00:18;;;;;;;1.77;1.02;;;15.20;1.00;;;;;;5102696;28;20073;-73
2023/10/09 03:02:49;;;;;;;1.63;1.00;;;15.20;1.00;;;;;;5104261;28;20465;-74
2023/10/09 03:05:18;;;;;;;1.02;0.70;;;15.20;1.00;;;;;;5085876;28;20047;-74
2023/10/09 03:07:45;;;;;;;1.63;1.02;;;15.10;1.00;;;;;;5103375;28;20047;-74
2023/10/09 03:10:12;;;;;;;1.52;1.00;;;15.10;1.00;;;;;;5103040;28;20069;-74
2023/10/09 03:12:39;;;;;;;1.35;0.75;;;15.10;1.00;;;;;;5103007;28;20051;-74
2023/10/09 03:15:08;;;;;;;0.70;0.50;;;15.10;1.00;;;;;;5102239;28;20079;-74
2023/10/09 03:17:35;;;;;;;0.80;0.70;;;15.00;1.00;;;;;;5102433;28;20054;-73
2023/10/09 03:20:12;;;;;;;1.20;0.77;;;14.90;1.00;;;;;;5086255;28;20083;-74
2023/10/09 03:22:40;;;;;;;0.85;0.70;;;14.90;1.00;;;;;;5102613;28;20056;-74
2023/10/09 03:25:11;;;;;;;3.03;1.27;;;14.90;1.00;;;;;;5083786;28;20562;-74
2023/10/09 03:27:47;;;;;;;1.15;0.80;;;14.80;1.00;;;;;;5101531;28;20086;-74
2023/10/09 03:30:22;;;;;;;1.17;0.80;;;14.80;1.00;;;;;;5086099;28;20050;-74
2023/10/09 03:32:51;;;;;;;1.02;0.68;;;14.70;1.00;;;;;;5070969;28;20071;-73
2023/10/09 03:35:24;;;;;;;0.80;0.63;;;14.70;1.00;;;;;;5084830;28;20421;-74
2023/10/09 03:37:57;;;;;;;1.63;0.82;;;14.70;1.00;;;;;;5101293;28;20056;-74
2023/10/09 03:40:24;;;;;;;0.63;0.50;;;14.60;15.90;;;;;;5101389;28;20058;-74
2023/10/09 03:42:52;;;;;;;1.10;0.68;;;14.60;29.70;;;;;;5101656;28;20579;-73
2023/10/09 03:45:31;;;;;;;1.73;1.00;;;14.60;78.20;;;;;;5101593;28;20043;-74
2023/10/09 03:48:02;;;;;;;0.95;0.60;;;14.50;82.50;;;;;;5102542;28;20058;-73
2023/10/09 03:50:35;;;;;;;1.27;0.57;;;14.50;99.90;;;;;;5098553;28;20043;-73
2023/10/09 03:53:07;;;;;;;0.57;0.55;;;14.50;99.90;;;;;;5101835;28;20105;-73
2023/10/09 03:55:38;;;;;;;1.00;0.70;;;14.40;99.90;;;;;;5085115;28;20150;-73
2023/10/09 03:58:06;;;;;;;0.95;0.70;;;14.50;99.90;;;;;;5067829;28;20047;-73
2023/10/09 04:00:44;;;;;;;1.27;0.70;;;14.50;99.90;;;;;;5103396;28;20120;-73
2023/10/09 04:03:13;;;;;;;0.95;0.50;;;14.50;99.90;;;;;;5102900;28;20552;-73
2023/10/09 04:05:42;;;;;;;0.60;0.40;;;14.50;99.90;;;;;;5103117;28;20390;-73
2023/10/09 04:08:13;;;;;;;0.95;0.57;;;14.50;99.90;;;;;;5101531;28;20101;-73
2023/10/09 04:10:43;;;;;;;0.85;0.43;;;14.40;99.90;;;;;;5085214;28;20096;-72
2023/10/09 04:13:16;;;;;;;0.68;0.52;;;14.40;99.90;;;;;;5085084;28;20645;-72
2023/10/09 04:15:43;;;;;;;;;;;14.40;99.90;;;;;;5086252;28;20493;-72
2023/10/09 04:18:18;;;;;;;0.88;0.50;;;14.30;99.90;;;;;;5101368;28;19924;-72
2023/10/09 04:23:16;;;;;;;1.02;0.60;;;14.30;1.00;;;;;;5102503;28;20053;-72
2023/10/09 04:25:45;;;;;;;0.90;0.55;;;14.30;99.90;;;;;;5101104;28;20580;-73
2023/10/09 04:30:46;;;;;;;1.10;0.50;;;14.40;1.00;;;;;;5103329;28;20051;-73
2023/10/09 04:33:42;;;;;;;1.00;0.70;;;14.40;1.00;;;;;;5084250;28;21011;-72
2023/10/09 04:36:21;;;;;;;1.05;0.57;;;14.40;6.10;;;;;;5088647;28;20303;-72
2023/10/09 04:44:19;;;;;;;0.73;0.50;;;14.50;99.90;;;;;;5102430;28;20439;-72
2023/10/09 04:50:01;;;;;;;1.23;0.63;;;14.50;1.00;;;;;;5099395;28;20040;-72
2023/10/09 05:03:04;;;;;;;0.77;0.50;;;14.40;1.00;;;;;;5094060;28;20079;-74
2023/10/09 05:08:21;;;;;;;0.90;0.70;;;14.40;99.90;;;;;;5081018;28;20040;-73
2023/10/09 05:19:06;;;;;;;0.95;0.57;;;14.20;1.00;;;;;;5100137;28;20071;-74
2023/10/09 05:21:44;;;;;;;1.15;0.77;;;14.20;1.00;;;;;;5078120;28;20048;-73
2023/10/09 05:29:19;;;;;;;1.38;0.90;;;14.20;1.00;;;;;;5096508;28;20044;-73
2023/10/09 05:34:33;;;;;;;1.02;0.63;;;14.10;1.00;;;;;;5101066;28;20044;-74
2023/10/09 05:37:16;;;;;;;0.98;0.60;;;14.00;1.00;;;;;;5069885;28;20128;-73
2023/10/09 05:39:58;;;;;;;1.52;0.75;;;14.00;1.00;;;;;;5084770;28;20540;-73
2023/10/09 05:42:42;;;;;;;0.65;0.57;;;13.90;1.00;;;;;;5068966;28;20047;-74
2023/10/09 05:48:06;;;;;;;1.17;0.60;;;13.80;99.90;;;;;;5082463;28;20084;-73
2023/10/09 05:53:09;;;;;;;1.02;0.77;;;13.80;99.90;;;;;;5081287;28;20093;-73
2023/10/09 06:04:15;;;;;;;1.48;0.80;;;13.60;99.90;;;;;;5031782;28;20056;-75
2023/10/09 06:06:44;;;;;;;1.27;0.60;;;13.60;99.90;;;;;;5092995;28;20044;-76
2023/10/09 06:11:49;;;;;;;0.98;0.47;;;13.70;99.90;;;;;;5098191;28;20085;-78
2023/10/09 06:19:27;;;;;;;1.02;0.47;;;13.60;99.90;;;;;;5080512;28;21060;-77
2023/10/09 06:24:38;;;;;;;0.85;0.50;;;13.60;99.90;;;;;;5096330;28;20091;-77
2023/10/09 06:27:24;;;;;;;1.05;0.60;;;13.60;99.90;;;;;;5101223;28;20187;-77
2023/10/09 06:29:51;;;;;;;1.05;0.60;;;13.50;99.90;;;;;;5098242;28;20036;-77
2023/10/09 06:34:53;;;;;;;0.88;0.50;;;13.50;99.90;;;;;;5104379;28;20135;-77
2023/10/09 06:42:31;;;;;;;0.65;0.55;;;13.70;99.90;;;;;;5105400;28;20493;-76
2023/10/09 06:45:09;;;;;;;0.98;0.60;;;13.70;99.90;;;;;;5087689;28;20058;-77
2023/10/09 06:47:42;;;;;;;0.50;0.45;;;13.80;99.90;;;;;;5087632;28;20071;-77
2023/10/09 06:52:57;;;;;;;0.43;0.40;;;13.90;99.90;;;;;;5096729;28;20485;-77
2023/10/09 06:55:34;;;;;;;0.82;0.50;;;14.00;99.90;;;;;;5082990;28;20058;-77
2023/10/09 06:58:01;;;;;;;0.65;0.43;;;14.10;50.30;;;;;;5103854;28;20044;-77
2023/10/09 07:03:14;;;;;;;1.83;0.60;;;14.20;48.50;;;;;;5101308;28;20126;-77
2023/10/09 07:06:04;;;;;;;0.57;0.43;;;14.30;1.00;;;;;;5101875;28;20047;-76
2023/10/09 07:08:32;;;;;;;0.80;0.65;;;14.40;1.00;;;;;;5104364;28;20048;-77
2023/10/09 07:11:57;;;;;;;0.63;0.38;;;14.50;1.00;;;;;;5104649;28;20052;-77
2023/10/09 07:13:55;;;;;;;0.77;0.47;;;14.60;99.90;;;;;;5104501;28;20044;-76
2023/10/09 07:16:38;;;;;;;;;;;14.70;99.90;;;;;;5104117;28;20047;-77
2023/10/09 07:21:54;;;;;;;0.43;0.40;;;15.10;99.90;;;;;;5103485;28;20076;-77
2023/10/09 07:24:37;;;;;;;0.57;0.50;;;15.30;57.90;;;;;;5102010;28;20119;-77
2023/10/09 07:27:14;;;;;;;0.57;0.43;;;15.50;1.00;;;;;;5103368;28;20131;-77
2023/10/09 07:29:50;;;;;;;0.70;0.57;;;15.60;1.00;;;;;;5085908;28;20135;-77
2023/10/09 07:32:20;;;;;;;0.52;0.40;;;15.80;99.90;;;;;;5103525;28;20039;-77
2023/10/09 07:34:53;;;;;;;0.70;0.40;;;15.90;99.90;;;;;;5098011;28;20052;-77
2023/10/09 07:37:30;;;;;;;1.10;0.60;;;16.10;99.90;;;;;;5103214;28;20096;-77
2023/10/09 07:39:57;;;;;;;0.75;0.45;;;16.30;99.90;;;;;;5104227;28;20043;-77
2023/10/09 07:42:43;;;;;;;1.40;0.73;;;16.40;99.90;;;;;;5104559;28;20047;-77
2023/10/09 07:48:05;;;;;;;0.93;0.52;;;16.60;99.90;;;;;;5048693;28;20205;-77
2023/10/09 07:50:48;;;;;;;0.80;0.50;;;16.70;99.90;;;;;;5092240;28;20127;-77
2023/10/09 07:53:19;;;;;;;0.30;0.30;;;16.80;99.90;;;;;;5082110;28;20044;-77
2023/10/09 07:55:58;;;;;;;0.57;0.40;;;17.00;99.90;;;;;;5073820;28;20506;-77
2023/10/09 07:58:25;;;;;;;0.40;0.40;;;17.00;99.90;;;;;;5086438;28;21842;-77
2023/10/09 08:01:15;;;;;;;0.40;0.38;;;17.10;99.90;;;;;;5099840;28;20120;-76
2023/10/09 08:03:45;;;;;;;0.60;0.50;;;17.20;99.90;;;;;;5088988;28;20104;-76
2023/10/09 08:12:13;;;;;;;1.40;0.55;;;17.40;99.90;;;;;;5083508;28;20058;-77
2023/10/09 08:14:45;;;;;;;1.33;0.80;;;17.40;99.90;;;;;;5085929;28;20101;-78
2023/10/09 08:17:21;;;;;;;2.22;0.70;;;17.40;99.90;;;;;;5064679;28;20055;-78
2023/10/09 08:19:53;;;;;;;0.57;0.50;;;17.40;99.90;;;;;;5077036;28;20391;-77
2023/10/09 08:24:57;;;;;;;1.05;0.60;;;17.50;99.90;;;;;;5094892;28;20182;-78
2023/10/09 08:33:02;;;;;;;1.10;0.63;;;17.50;97.80;;;;;;5097636;28;20469;-78
2023/10/09 08:35:33;;;;;;;1.02;0.80;;;17.50;97.30;;;;;;5076400;28;20429;-76
2023/10/09 08:38:10;;;;;;;1.05;0.80;;;17.60;98.20;;;;;;5086407;28;20438;-76
2023/10/09 08:40:41;;;;;;;1.38;1.00;;;17.60;98.60;;;;;;5084052;28;20047;-76
2023/10/09 08:43:16;;;;;;;2.03;1.00;;;17.60;95.70;;;;;;5064158;28;20432;-76
2023/10/09 08:45:53;;;;;;;1.35;0.80;;;17.70;95.70;;;;;;5105302;28;20067;-76
2023/10/09 08:48:21;;;;;;;1.13;0.75;;;17.80;93.90;;;;;;5108302;28;20059;-76
2023/10/09 08:50:53;;;;;;;0.98;0.80;;;17.80;92.40;;;;;;5090454;28;20052;-75
2023/10/09 08:53:21;;;;;;;0.90;0.70;;;17.90;90.40;;;;;;5107990;28;20083;-76
2023/10/09 08:55:48;;;;;;;1.00;0.70;;;17.90;90.20;;;;;;5106029;28;20111;-75
2023/10/09 08:58:26;;;;;;;1.80;0.80;;;18.00;89.70;;;;;;5107903;28;20545;-76
2023/10/09 09:00:55;;;;;;;1.40;0.82;;;18.10;85.40;;;;;;5108480;28;20311;-76
2023/10/09 09:03:25;;;;;;;1.27;1.05;;;18.10;84.80;;;;;;5108037;28;20062;-75
2023/10/09 09:06:02;;;;;;;1.10;0.88;;;18.20;86.50;;;;;;5108707;28;20123;-76
2023/10/09 09:08:30;;;;;;;1.38;0.80;;;18.20;86.40;;;;;;5090186;28;20727;-75
2023/10/09 09:11:13;;;;;;;1.00;0.77;;;18.20;81.40;;;;;;5089750;28;20040;-76
2023/10/09 09:13:41;;;;;;;0.85;0.60;;;18.30;79.20;;;;;;5076920;28;20047;-76
2023/10/09 09:16:16;;;;;;;0.82;0.60;;;18.30;77.30;;;;;;5090075;28;20130;-76
2023/10/09 09:19:00;;;;;;;0.75;0.70;;;18.40;78.50;;;;;;5107203;28;20062;-76
2023/10/09 09:21:28;;;;;;;1.10;0.60;;;18.40;78.80;;;;;;5075066;28;20391;-75
2023/10/09 09:24:01;;;;;;;0.70;0.40;;;18.50;72.30;;;;;;5103241;28;20524;-76
2023/10/09 09:26:38;;;;;;;0.75;0.50;;;18.50;72.60;;;;;;5102181;28;20056;-76
2023/10/09 09:29:05;;;;;;;1.10;0.55;;;18.60;75.60;;;;;;5087223;28;20047;-76
2023/10/09 09:31:41;;;;;;;0.63;0.43;;;18.80;71.90;;;;;;5074450;28;20055;-76
2023/10/09 09:34:17;;;;;;;0.82;0.68;;;18.90;69.40;;;;;;5091057;28;20052;-76
2023/10/09 09:36:53;;;;;;;0.90;0.60;;;18.90;68.90;;;;;;5106061;28;20052;-76
2023/10/09 09:39:28;;;;;;;1.08;0.73;;;19.00;59.90;;;;;;5106729;28;20048;-76
2023/10/09 09:42:10;;;;;;;1.10;0.60;;;19.10;59.70;;;;;;5105991;28;20556;-76
2023/10/09 09:44:43;;;;;;;1.13;0.70;;;19.10;53.10;;;;;;5086421;28;20047;-76
2023/10/09 09:47:23;;;;;;;1.20;0.80;;;19.30;54.00;;;;;;5102768;28;20043;-76
2023/10/09 09:49:52;;;;;;;1.17;0.80;;;19.30;52.50;;;;;;5106206;28;20500;-76
2023/10/09 09:52:24;;;;;;;0.70;0.50;;;19.40;48.70;;;;;;5105011;28;20051;-76
2023/10/09 09:54:51;;;;;;;0.90;0.60;;;19.50;40.80;;;;;;5101401;28;20052;-76
2023/10/09 09:57:25;;;;;;;0.85;0.43;;;19.50;42.10;;;;;;5103313;28;20059;-75
2023/10/09 09:59:55;;;;;;;0.77;0.47;;;19.60;39.10;;;;;;5074140;28;20075;-76
2023/10/09 10:02:29;;;;;;;1.00;0.52;;;19.70;37.00;;;;;;5089218;28;20047;-76
2023/10/09 10:04:57;;;;;;;0.52;0.35;;;19.80;35.80;;;;;;5088596;28;20418;-76
2023/10/09 10:07:25;;;;;;;0.82;0.65;;;19.80;31.50;;;;;;5088680;28;20057;-76
2023/10/09 10:09:54;;;;;;;0.75;0.52;;;19.80;23.30;;;;;;5088155;28;20071;-76
2023/10/09 10:13:00;;;;;;;1.02;0.50;;;19.80;23.20;;;;;;5106075;28;20052;-76
2023/10/09 10:15:56;;;;;;;0.80;0.60;;;19.90;21.30;;;;;;5105170;28;20050;-76
2023/10/09 10:18:24;;;;;;;0.98;0.60;;;19.90;20.80;;;;;;5107031;28;20137;-76
2023/10/09 10:21:15;;;;;;;0.85;0.47;;;19.80;19.50;;;;;;5105547;28;20058;-76
2023/10/09 10:23:47;;;;;;;0.90;0.63;;;20.00;19.90;;;;;;5104151;27;20100;-76
2023/10/09 10:26:21;;;;;;;0.50;0.50;;;20.10;23.70;;;;;;5084391;28;20078;-76
2023/10/09 10:29:23;;;;;;;0.98;0.68;;;20.20;21.50;;;;;;5101747;28;20047;-76
2023/10/09 10:32:01;;;;;;;1.40;0.80;;;20.40;19.00;;;;;;5101973;28;20047;-76
2023/10/09 10:34:55;;;;;;;1.50;0.77;;;20.50;15.00;;;;;;5104527;28;20047;-76
2023/10/09 10:37:44;;;;;;;1.00;0.90;;;20.60;13.10;;;;;;5105135;28;20087;-76
2023/10/09 10:40:37;;;;;;;1.00;0.70;;;20.80;10.70;;;;;;5105111;28;20084;-76
2023/10/09 10:43:13;;;;;;;1.20;0.75;;;20.90;10.20;;;;;;5105823;28;20428;-76
2023/10/09 10:45:45;;;;;;;0.55;0.50;;;21.00;9.30;;;;;;5104155;28;20488;-76
2023/10/09 10:48:37;;;;;;;0.70;0.52;;;21.00;7.40;;;;;;5103755;28;20059;-76
2023/10/09 10:51:04;;;;;;;0.68;0.55;;;21.10;7.10;;;;;;5088230;28;20056;-76
2023/10/09 10:53:47;;;;;;;0.80;0.70;;;21.30;7.10;;;;;;5068020;28;20062;-76
2023/10/09 11:07:06;;;;;;;0.77;0.55;;;21.80;1.00;;;;;;5086760;28;20120;-76
2023/10/09 11:12:55;;;;;;;1.05;0.68;;;21.90;1.00;;;;;;5091524;28;20051;-76
2023/10/09 11:15:43;;;;;;;0.68;0.50;;;21.90;1.00;;;;;;5105801;28;20112;-76
2023/10/09 11:18:25;;;;;;;1.40;0.98;;;22.00;1.00;;;;;;5103977;28;20055;-76
2023/10/09 11:20:57;;;;;;;0.77;0.60;;;22.20;1.00;;;;;;5104598;28;20617;-76
2023/10/09 11:23:38;;;;;;;0.75;0.52;;;22.40;1.00;;;;;;5085864;28;20583;-76
2023/10/09 11:26:25;;;;;;;0.63;0.50;;;22.40;1.00;;;;;;5070262;28;20059;-76
2023/10/09 11:32:25;;;;;;;0.95;0.70;;;22.70;1.00;;;;;;5067486;28;20051;-76
2023/10/09 11:35:10;;;;;;;1.05;0.70;;;22.80;1.00;;;;;;5100571;28;20039;-76
2023/10/09 11:37:42;;;;;;;0.77;0.60;;;23.00;1.00;;;;;;5085989;28;20190;-76
2023/10/09 11:43:24;;;;;;;1.08;0.80;;;23.40;1.00;;;;;;5103983;28;20132;-76
2023/10/09 11:45:57;;;;;;;1.55;0.98;;;23.40;1.00;;;;;;5087294;28;20055;-76
2023/10/09 11:48:46;;;;;;;1.40;0.98;;;23.60;1.00;;;;;;5101959;28;20063;-76
2023/10/09 11:51:18;;;;;;;1.92;0.95;;;23.70;1.00;;;;;;5099165;28;20605;-76
2023/10/09 11:53:49;;;;;;;2.30;1.33;;;23.80;1.00;;;;;;5093600;28;20051;-77
2023/10/09 11:56:19;;;;;;;2.65;1.45;;;23.80;1.00;;;;;;5086933;28;20048;-78
2023/10/09 11:58:49;;;;;;;1.35;0.98;;;24.10;1.00;;;;;;5067768;28;20063;-74
2023/10/09 12:01:23;;;;;;;1.52;1.08;;;24.10;1.00;;;;;;5090620;28;20156;-74
2023/10/09 12:03:50;;;;;;;1.55;0.98;;;24.40;1.00;;;;;;5088756;28;20052;-75
2023/10/09 12:06:32;;;;;;;1.42;0.90;;;24.60;1.00;;;;;;5080953;28;20040;-74
2023/10/09 12:08:59;;;;;;;0.95;0.70;;;24.90;1.00;;;;;;5071528;28;20397;-75
2023/10/09 12:11:28;;;;;;;1.65;0.93;;;25.20;1.00;;;;;;5094244;28;20047;-74
2023/10/09 12:13:57;;;;;;;1.27;0.85;;;25.20;1.00;;;;;;5075154;28;20101;-74
2023/10/09 12:16:27;;;;;;;1.25;1.00;;;25.40;1.00;;;;;;5088002;28;20056;-75
2023/10/09 12:18:55;;;;;;;1.30;1.00;;;25.60;1.00;;;;;;5106233;28;20043;-75
2023/10/09 12:21:23;;;;;;;0.80;0.50;;;25.80;1.00;;;;;;5095359;28;20281;-74
2023/10/09 12:23:50;;;;;;;1.45;0.90;;;26.10;1.00;;;;;;5105498;28;20047;-74
2023/10/09 12:26:17;;;;;;;0.57;0.57;;;26.20;1.00;;;;;;5066248;28;20070;-74
2023/10/09 12:28:49;;;;;;;1.48;0.82;;;26.40;1.00;;;;;;5096952;28;20048;-76
2023/10/09 12:31:19;;;;;;;;;;;26.40;1.00;;;;;;5098883;28;20113;-74
2023/10/09 12:33:47;;;;;;;0.82;0.60;;;26.30;1.00;;;;;;5082003;28;19959;-75
2023/10/09 12:36:20;;;;;;;1.25;0.85;;;26.20;1.00;;;;;;5087517;28;20050;-74
2023/10/09 12:38:52;;;;;;;1.80;0.90;;;26.10;1.00;;;;;;5083745;28;20066;-74
2023/10/09 12:41:20;;;;;;;1.05;0.73;;;26.10;1.00;;;;;;5100869;28;20077;-74
2023/10/09 12:43:47;;;;;;;0.85;0.70;;;26.30;1.00;;;;;;5106644;28;20059;-74
2023/10/09 12:46:17;;;;;;;1.00;0.80;;;26.60;1.00;;;;;;5095156;28;20040;-75
2023/10/09 12:48:47;;;;;;;1.67;1.05;;;26.90;1.00;;;;;;5089512;28;20063;-75
2023/10/09 12:51:18;;;;;;;1.58;1.05;;;27.20;1.00;;;;;;5105611;28;20050;-74
2023/10/09 12:53:45;;;;;;;1.25;0.80;;;27.40;1.00;;;;;;5081443;28;20082;-74
2023/10/09 12:56:13;;;;;;;1.25;0.75;;;27.70;1.00;;;;;;5098021;28;20073;-74
2023/10/09 12:58:44;;;;;;;0.85;0.68;;;28.10;1.00;;;;;;5101184;28;20266;-74
2023/10/09 13:01:12;;;;;;;1.33;0.73;;;28.30;1.00;;;;;;5100964;28;20051;-74
2023/10/09 13:03:39;;;;;;;0.93;0.80;;;28.60;1.00;;;;;;5084962;28;20044;-74
2023/10/09 13:06:15;;;;;;;1.30;0.93;;;28.90;1.00;;;;;;5098609;28;20051;-74
2023/10/09 13:08:45;;;;;;;1.50;0.98;;;29.10;1.00;;;;;;5099812;28;20153;-77
2023/10/09 13:11:16;;;;;;;1.65;1.15;;;29.30;1.00;;;;;;5092147;27;20079;-77
2023/10/09 13:13:50;;;;;;;1.33;0.95;;;29.30;1.00;;;;;;5094894;28;20254;-77
2023/10/09 13:16:24;;;;;;;0.95;0.70;;;29.00;1.00;;;;;;5092777;28;20063;-77
2023/10/09 13:18:56;;;;;;;1.00;0.75;;;28.80;1.00;;;;;;5082208;28;20357;-76
2023/10/09 13:21:26;;;;;;;1.25;0.80;;;28.90;1.00;;;;;;5088981;28;20433;-76
2023/10/09 13:23:57;;;;;;;0.93;0.80;;;29.10;1.00;;;;;;5070949;28;20055;-77
2023/10/09 13:26:34;;;;;;;0.93;0.70;;;29.40;1.00;;;;;;5077727;28;20155;-77
2023/10/09 13:29:02;;;;;;;1.98;1.17;;;29.70;1.00;;;;;;5092415;28;20043;-77
2023/10/09 13:31:33;;;;;;;2.85;1.10;;;29.80;1.00;;;;;;5074860;28;20568;-77
2023/10/09 13:34:02;;;;;;;1.65;0.95;;;29.80;1.00;;;;;;5079667;28;20052;-77
2023/10/09 13:36:31;;;;;;;1.58;1.15;;;29.70;1.00;;;;;;5098122;28;20622;-77
2023/10/09 13:41:49;;;;;;;1.90;1.20;;;30.00;1.00;;;;;;5100846;28;20502;-76
2023/10/09 13:44:16;;;;;;;1.73;1.23;;;30.00;1.00;;;;;;5100633;28;20128;-77
2023/10/09 13:46:45;;;;;;;1.92;1.27;;;29.70;1.00;;;;;;5062481;28;20135;-75
2023/10/09 13:49:13;;;;;;;2.22;1.48;;;29.70;1.00;;;;;;5091962;28;20594;-75
2023/10/09 13:51:44;;;;;;;1.75;1.33;;;29.50;1.00;;;;;;5081767;28;20129;-75
2023/10/09 13:57:07;;;;;;;1.75;1.02;;;29.50;1.00;;;;;;5078537;28;20265;-75
2023/10/09 13:59:42;;;;;;;2.25;1.15;;;29.80;1.00;;;;;;5080528;28;20088;-75
2023/10/09 14:02:09;;;;;;;1.48;0.93;;;30.10;1.00;;;;;;5080882;28;20059;-75
2023/10/09 14:04:37;;;;;;;1.10;0.82;;;30.40;1.00;;;;;;5083874;28;20055;-75
2023/10/09 14:07:08;;;;;;;1.70;1.20;;;30.40;1.00;;;;;;5098404;28;20211;-75
2023/10/09 14:09:38;;;;;;;1.85;1.35;;;29.70;1.00;;;;;;5087541;28;20089;-75
2023/10/09 14:12:06;;;;;;;1.73;1.30;;;29.60;1.00;;;;;;5080247;28;20128;-75
2023/10/09 14:14:34;;;;;;;2.00;1.50;;;29.70;1.00;;;;;;5094631;28;20074;-75
2023/10/09 14:17:01;;;;;;;2.80;1.58;;;29.70;1.00;;;;;;5082460;28;20087;-75
2023/10/09 14:19:33;;;;;;;2.05;1.35;;;30.20;1.00;;;;;;5100761;28;20138;-74
2023/10/09 14:22:00;;;;;;;1.48;1.08;;;30.50;1.00;;;;;;5099399;28;20093;-75
2023/10/09 14:24:34;;;;;;;;;;;30.70;1.00;;;;;;5098184;28;20483;-75
2023/10/09 14:27:06;;;;;;;1.15;0.90;;;31.20;1.00;;;;;;5096027;28;19928;-75
2023/10/09 14:29:37;;;;;;;1.63;1.17;;;31.40;1.00;;;;;;5081063;28;20055;-79
2023/10/09 14:32:05;;;;;;;1.50;1.00;;;31.30;1.00;;;;;;5086413;28;20132;-78
2023/10/09 14:34:35;;;;;;;1.45;0.90;;;31.40;1.00;;;;;;5086474;28;20051;-78
2023/10/09 14:37:03;;;;;;;2.15;1.35;;;31.50;1.00;;;;;;5089838;28;20225;-78
2023/10/09 14:39:30;;;;;;;1.95;1.27;;;31.60;1.00;;;;;;5069998;28;20662;-79
2023/10/09 14:41:57;;;;;;;2.15;1.20;;;31.60;1.00;;;;;;5088461;28;20048;-79
2023/10/09 14:44:28;;;;;;;1.77;1.17;;;31.50;1.00;;;;;;5085328;28;20138;-79
2023/10/09 14:46:55;;;;;;;1.40;1.13;;;31.60;1.00;;;;;;5078182;28;20044;-77
2023/10/09 14:49:23;;;;;;;2.40;1.27;;;31.70;1.00;;;;;;5062326;28;20054;-78
2023/10/09 14:51:50;;;;;;;1.73;1.17;;;31.70;1.00;;;;;;5080732;28;20048;-78
2023/10/09 14:54:18;;;;;;;1.98;1.30;;;31.90;1.00;;;;;;5083321;28;20048;-78
2023/10/09 14:56:45;;;;;;;1.10;0.85;;;32.00;1.00;;;;;;5102489;28;20142;-78
2023/10/09 14:59:12;;;;;;;1.10;0.90;;;32.30;1.00;;;;;;5103054;28;20142;-78
2023/10/09 15:01:39;;;;;;;2.00;1.15;;;32.60;1.00;;;;;;5105486;28;20058;-78
2023/10/09 15:04:07;;;;;;;1.25;0.95;;;32.60;1.00;;;;;;5104777;28;20040;-78
2023/10/09 15:06:38;;;;;;;3.08;1.70;;;32.60;1.00;;;;;;5101882;28;20051;-79
2023/10/09 15:09:09;;;;;;;2.58;1.30;;;32.10;1.00;;;;;;5101725;28;20062;-78
2023/10/09 15:11:39;;;;;;;2.38;1.33;;;32.00;1.00;;;;;;5087513;28;20040;-78
2023/10/09 15:14:06;;;;;;;1.48;1.00;;;32.00;1.00;;;;;;5104837;28;20060;-79
2023/10/09 15:16:33;;;;;;;1.92;1.00;;;31.80;1.00;;;;;;5101484;28;20051;-78
2023/10/09 15:19:02;;;;;;;1.70;1.20;;;31.60;1.00;;;;;;5101192;28;20577;-78
2023/10/09 15:21:32;;;;;;;2.33;1.10;;;31.70;1.00;;;;;;5102559;28;20059;-78
2023/10/09 15:23:59;;;;;;;1.70;1.08;;;31.70;1.00;;;;;;5101963;28;20550;-78
2023/10/09 15:26:32;;;;;;;1.65;1.08;;;32.10;1.00;;;;;;5099662;28;20051;-78
2023/10/09 15:29:06;;;;;;;1.83;0.90;;;32.40;1.00;;;;;;5102049;28;20051;-78
2023/10/09 15:31:34;;;;;;;1.25;0.80;;;32.70;1.00;;;;;;5103923;28;20409;-78
2023/10/09 15:34:01;;;;;;;1.30;0.98;;;32.80;1.00;;;;;;5104630;28;20059;-78
2023/10/09 15:36:31;;;;;;;1.33;0.77;;;32.50;1.00;;;;;;5105369;28;20300;-77
2023/10/09 15:39:00;;;;;;;1.27;1.05;;;32.20;1.00;;;;;;5103627;28;20044;-78
2023/10/09 15:41:31;;;;;;;1.20;0.80;;;32.10;1.00;;;;;;5087300;28;20048;-78
2023/10/09 15:43:58;;;;;;;1.77;0.95;;;32.20;1.00;;;;;;5105117;28;20481;-78
2023/10/09 15:46:33;;;;;;;1.67;1.00;;;32.10;1.00;;;;;;5103798;28;20056;-78
2023/10/09 15:49:01;;;;;;;1.20;0.90;;;32.00;1.00;;;;;;5087831;28;20081;-79
2023/10/09 15:51:28;;;;;;;1.08;0.95;;;32.00;1.00;;;;;;5105483;28;20048;-78
2023/10/09 15:53:56;;;;;;;1.10;0.70;;;31.90;1.00;;;;;;5103135;28;20540;-79